createdAt,value
2017-05-18T00:01:20.905Z,21.60
2017-05-18T00:03:49.240Z,21.60
2017-05-18T00:06:18.269Z,21.60
2017-05-18T00:08:46.581Z,21.70
2017-05-18T00:11:14.868Z,21.70
2017-05-18T00:13:43.144Z,21.70
2017-05-18T00:16:11.460Z,21.70
2017-05-18T00:18:39.750Z,21.70
2017-05-18T00:21:08.069Z,21.70
2017-05-18T00:23:36.352Z,21.60
2017-05-18T00:26:04.629Z,21.70
2017-05-18T00:28:32.938Z,21.70
2017-05-18T00:31:01.254Z,21.60
2017-05-18T00:33:29.538Z,21.60
2017-05-18T00:35:57.821Z,21.60
2017-05-18T00:38:26.141Z,21.60
2017-05-18T00:40:55.177Z,21.50
2017-05-18T00:43:23.466Z,21.50
2017-05-18T00:45:51.780Z,21.60
2017-05-18T00:48:20.807Z,21.50
2017-05-18T00:50:49.100Z,21.50
2017-05-18T00:53:17.448Z,21.40
2017-05-18T00:55:45.722Z,21.50
2017-05-18T00:58:14.101Z,21.40
2017-05-18T01:00:42.484Z,21.40
2017-05-18T01:03:10.771Z,21.40
2017-05-18T01:05:39.084Z,21.40
2017-05-18T01:08:08.104Z,21.30
2017-05-18T01:10:36.377Z,21.30
2017-05-18T01:13:04.687Z,21.40
2017-05-18T01:15:33.068Z,21.40
2017-05-18T01:18:01.343Z,21.30
2017-05-18T01:20:29.725Z,21.30
2017-05-18T01:22:58.000Z,21.30
2017-05-18T01:25:26.312Z,21.30
2017-05-18T01:27:54.661Z,21.20
2017-05-18T01:30:23.037Z,21.20
2017-05-18T01:32:51.345Z,21.20
2017-05-18T01:35:19.687Z,21.30
2017-05-18T01:37:48.078Z,21.20
2017-05-18T01:40:16.379Z,21.20
2017-05-18T01:42:44.676Z,21.20
2017-05-18T01:45:12.961Z,21.20
2017-05-18T01:47:42.004Z,21.20
2017-05-18T01:50:10.371Z,21.10
2017-05-18T01:52:38.649Z,21.20
2017-05-18T01:55:07.038Z,21.10
2017-05-18T01:57:35.417Z,21.10
2017-05-18T02:00:03.688Z,21.10
2017-05-18T02:02:32.064Z,21.00
2017-05-18T02:05:00.341Z,21.00
2017-05-18T02:07:28.723Z,21.00
2017-05-18T02:09:56.996Z,21.00
2017-05-18T02:12:25.267Z,20.90
2017-05-18T02:14:53.573Z,20.80
2017-05-18T02:17:21.928Z,20.80
2017-05-18T02:19:50.201Z,20.80
2017-05-18T02:22:18.508Z,20.70
2017-05-18T02:24:46.788Z,20.70
2017-05-18T02:27:15.064Z,20.70
2017-05-18T02:29:43.384Z,20.70
2017-05-18T02:32:11.740Z,20.60
2017-05-18T02:34:40.020Z,20.60
2017-05-18T02:37:08.331Z,20.60
2017-05-18T02:39:36.681Z,20.60
2017-05-18T02:42:05.061Z,20.40
2017-05-18T02:44:33.359Z,20.40
2017-05-18T02:47:01.687Z,20.40
2017-05-18T02:49:29.988Z,20.40
2017-05-18T02:51:58.368Z,20.30
2017-05-18T02:54:26.744Z,20.30
2017-05-18T02:56:55.013Z,20.30
2017-05-18T02:59:23.316Z,20.30
2017-05-18T03:01:51.632Z,20.30
2017-05-18T03:04:19.955Z,20.20
2017-05-18T03:06:48.537Z,20.20
2017-05-18T03:09:17.121Z,20.20
2017-05-18T03:11:46.420Z,20.10
2017-05-18T03:14:14.797Z,20.10
2017-05-18T03:16:43.073Z,20.10
2017-05-18T03:19:11.343Z,20.00
2017-05-18T03:21:39.644Z,20.00
2017-05-18T03:24:08.001Z,19.90
2017-05-18T03:26:36.380Z,20.00
2017-05-18T03:29:04.680Z,19.90
2017-05-18T03:31:32.956Z,19.80
2017-05-18T03:34:01.416Z,19.90
2017-05-18T03:36:29.810Z,19.80
2017-05-18T03:38:58.189Z,19.80
2017-05-18T03:41:26.519Z,19.80
2017-05-18T03:43:54.796Z,19.80
2017-05-18T03:46:23.080Z,19.80
2017-05-18T03:48:52.231Z,19.80
2017-05-18T03:51:20.508Z,19.80
2017-05-18T03:53:48.781Z,19.80
2017-05-18T03:56:17.468Z,19.80
2017-05-18T03:58:45.776Z,19.90
2017-05-18T04:01:14.059Z,19.90
2017-05-18T04:03:42.428Z,19.90
2017-05-18T04:06:10.842Z,20.00
2017-05-18T04:08:39.118Z,20.00
2017-05-18T04:11:07.387Z,19.90
2017-05-18T04:13:36.832Z,20.00
2017-05-18T04:16:05.117Z,20.10
2017-05-18T04:18:33.395Z,20.10
2017-05-18T04:21:01.700Z,20.10
2017-05-18T04:23:30.049Z,20.10
2017-05-18T04:25:58.323Z,20.20
2017-05-18T04:28:26.745Z,20.20
2017-05-18T04:30:55.023Z,20.30
2017-05-18T04:33:23.298Z,20.30
2017-05-18T04:35:51.635Z,20.40
2017-05-18T04:38:19.953Z,20.40
2017-05-18T04:40:48.226Z,20.40
2017-05-18T04:43:16.536Z,20.50
2017-05-18T04:45:44.803Z,20.60
2017-05-18T04:48:13.076Z,20.60
2017-05-18T04:50:41.384Z,20.70
2017-05-18T04:53:10.404Z,20.80
2017-05-18T04:55:38.681Z,20.80
2017-05-18T04:58:07.391Z,20.90
2017-05-18T05:00:35.672Z,20.90
2017-05-18T05:03:03.948Z,21.10
2017-05-18T05:05:32.324Z,21.10
2017-05-18T05:08:00.709Z,21.30
2017-05-18T05:10:28.977Z,21.40
2017-05-18T05:12:57.360Z,21.40
2017-05-18T05:15:25.632Z,21.30
2017-05-18T05:17:53.925Z,21.30
2017-05-18T05:20:22.396Z,21.30
2017-05-18T05:22:50.773Z,21.30
2017-05-18T05:25:19.047Z,21.30
2017-05-18T05:27:47.354Z,21.40
2017-05-18T05:30:15.631Z,21.40
2017-05-18T05:32:43.992Z,21.40
2017-05-18T05:35:12.294Z,21.40
2017-05-18T05:37:40.673Z,21.30
2017-05-18T05:40:09.005Z,21.30
2017-05-18T05:42:38.025Z,21.30
2017-05-18T05:45:06.312Z,21.10
2017-05-18T05:47:34.650Z,21.00
2017-05-18T05:50:04.076Z,20.90
2017-05-18T05:52:32.381Z,20.90
2017-05-18T05:55:00.762Z,20.80
2017-05-18T05:57:29.118Z,20.80
2017-05-18T05:59:57.420Z,20.90
2017-05-18T06:02:25.696Z,20.90
2017-05-18T06:04:54.012Z,21.00
2017-05-18T06:07:23.036Z,21.00
2017-05-18T06:09:51.313Z,21.10
2017-05-18T06:12:19.612Z,21.10
2017-05-18T06:14:47.891Z,21.10
2017-05-18T06:17:16.275Z,21.00
2017-05-18T06:19:44.662Z,20.90
2017-05-18T06:22:12.996Z,20.90
2017-05-18T06:24:41.305Z,21.00
2017-05-18T06:27:09.696Z,21.00
2017-05-18T06:29:38.006Z,21.10
2017-05-18T06:32:07.021Z,21.00
2017-05-18T06:34:35.292Z,20.90
2017-05-18T06:37:04.436Z,21.00
2017-05-18T06:39:32.813Z,20.90
2017-05-18T06:42:01.137Z,20.90
2017-05-18T06:44:29.820Z,21.00
2017-05-18T06:46:58.096Z,21.00
2017-05-18T06:49:26.476Z,20.90
2017-05-18T06:51:54.782Z,20.80
2017-05-18T06:54:23.057Z,20.70
2017-05-18T06:56:51.416Z,20.70
2017-05-18T06:59:19.894Z,20.50
2017-05-18T07:01:48.270Z,20.50
2017-05-18T07:04:16.548Z,20.60
2017-05-18T07:06:44.928Z,20.70
2017-05-18T07:09:13.281Z,20.70
2017-05-18T07:11:41.557Z,20.90
2017-05-18T07:14:09.858Z,21.10
2017-05-18T07:16:38.136Z,21.10
2017-05-18T07:19:06.407Z,21.20
2017-05-18T07:21:34.715Z,21.30
2017-05-18T07:24:03.732Z,21.40
2017-05-18T07:26:32.035Z,21.50
2017-05-18T07:29:00.335Z,21.60
2017-05-18T07:31:28.636Z,21.60
2017-05-18T07:33:57.677Z,21.60
2017-05-18T07:36:26.064Z,21.60
2017-05-18T07:38:54.332Z,21.40
2017-05-18T07:41:22.645Z,21.20
2017-05-18T07:43:51.002Z,21.10
2017-05-18T07:46:19.369Z,21.00
2017-05-18T07:48:47.684Z,20.80
2017-05-18T07:51:15.952Z,20.70
2017-05-18T07:53:44.332Z,20.70
2017-05-18T07:56:12.683Z,20.60
2017-05-18T07:58:41.073Z,20.40
2017-05-18T08:01:09.385Z,20.40
2017-05-18T08:03:38.437Z,20.30
2017-05-18T08:06:06.712Z,20.50
2017-05-18T08:08:35.402Z,20.50
2017-05-18T08:11:03.676Z,20.60
2017-05-18T08:13:31.948Z,20.60
2017-05-18T08:16:00.247Z,20.80
2017-05-18T08:18:28.522Z,20.90
2017-05-18T08:20:56.828Z,21.00
2017-05-18T08:23:25.840Z,21.20
2017-05-18T08:25:54.111Z,21.20
2017-05-18T08:28:23.156Z,21.40
2017-05-18T08:30:51.429Z,21.50
2017-05-18T08:33:19.725Z,21.60
2017-05-18T08:35:48.032Z,21.80
2017-05-18T08:38:17.043Z,21.80
2017-05-18T08:40:45.327Z,21.90
2017-05-18T08:43:13.638Z,21.90
2017-05-18T08:45:42.011Z,22.10
2017-05-18T08:48:10.283Z,22.20
2017-05-18T08:50:38.663Z,22.40
2017-05-18T08:53:06.940Z,22.40
2017-05-18T08:55:35.216Z,22.30
2017-05-18T08:58:03.544Z,22.30
2017-05-18T09:00:32.560Z,22.50
2017-05-18T09:03:00.842Z,22.70
2017-05-18T09:05:30.179Z,22.60
2017-05-18T09:07:58.560Z,22.40
2017-05-18T09:10:26.840Z,22.20
2017-05-18T09:12:55.150Z,22.20
2017-05-18T09:15:24.181Z,22.40
2017-05-18T09:17:52.512Z,22.50
2017-05-18T09:20:21.528Z,22.60
2017-05-18T09:22:49.820Z,22.80
2017-05-18T09:25:18.160Z,22.90
2017-05-18T09:27:47.175Z,22.90
2017-05-18T09:30:15.463Z,23.00
2017-05-18T09:32:43.798Z,23.10
2017-05-18T09:35:12.856Z,23.00
2017-05-18T09:37:41.178Z,23.20
2017-05-18T09:40:09.484Z,23.20
2017-05-18T09:42:37.759Z,23.00
2017-05-18T09:45:06.074Z,22.40
2017-05-18T09:47:34.373Z,22.60
2017-05-18T09:50:02.722Z,22.50
2017-05-18T09:52:31.049Z,22.70
2017-05-18T09:54:59.337Z,22.90
2017-05-18T09:57:28.386Z,22.90
2017-05-18T09:59:56.713Z,23.00
2017-05-18T10:02:25.080Z,22.90
2017-05-18T10:04:54.117Z,22.70
2017-05-18T10:07:22.832Z,22.40
2017-05-18T10:09:51.153Z,22.30
2017-05-18T10:12:19.473Z,22.20
2017-05-18T10:14:47.770Z,22.20
2017-05-18T10:17:16.085Z,22.30
2017-05-18T10:19:44.364Z,22.30
2017-05-18T10:22:12.684Z,22.40
2017-05-18T10:24:41.014Z,22.50
2017-05-18T10:27:10.048Z,22.50
2017-05-18T10:29:38.333Z,22.60
2017-05-18T10:32:06.712Z,22.80
2017-05-18T10:34:35.092Z,22.70
2017-05-18T10:37:03.469Z,22.50
2017-05-18T10:39:31.857Z,22.60
2017-05-18T10:42:00.240Z,22.30
2017-05-18T10:44:28.713Z,22.30
2017-05-18T10:46:57.087Z,22.20
2017-05-18T10:49:25.431Z,22.00
2017-05-18T10:51:53.715Z,21.80
2017-05-18T10:54:21.997Z,21.80
2017-05-18T10:56:50.313Z,21.40
2017-05-18T10:59:18.596Z,21.10
2017-05-18T11:01:46.877Z,21.10
2017-05-18T11:04:15.346Z,21.00
2017-05-18T11:06:44.022Z,20.50
2017-05-18T11:09:12.394Z,20.40
2017-05-18T11:11:40.821Z,20.40
2017-05-18T11:14:09.164Z,20.10
2017-05-18T11:16:37.526Z,20.00
2017-05-18T11:19:05.975Z,19.60
2017-05-18T11:21:34.468Z,19.30
2017-05-18T11:24:04.056Z,19.10
2017-05-18T11:26:32.979Z,19.00
2017-05-18T11:29:03.091Z,18.70
2017-05-18T11:31:32.293Z,18.00
2017-05-18T11:34:01.568Z,16.90
2017-05-18T11:36:29.879Z,16.70
2017-05-18T11:38:58.936Z,16.40
2017-05-18T11:41:27.225Z,16.40
2017-05-18T11:43:55.513Z,16.30
2017-05-18T11:46:23.827Z,16.20
2017-05-18T11:48:52.112Z,16.20
2017-05-18T11:51:20.394Z,16.10
2017-05-18T11:53:48.712Z,16.10
2017-05-18T11:56:17.007Z,16.20
2017-05-18T11:58:47.713Z,16.30
2017-05-18T12:01:16.496Z,16.50
2017-05-18T12:03:44.788Z,16.80
2017-05-18T12:06:13.076Z,16.90
2017-05-18T12:08:41.390Z,17.10
2017-05-18T12:11:09.699Z,17.30
2017-05-18T12:13:37.992Z,17.10
2017-05-18T12:18:36.320Z,17.20
2017-05-18T12:21:05.391Z,17.10
2017-05-18T12:23:33.707Z,17.00
2017-05-18T12:26:01.992Z,17.00
2017-05-18T12:28:30.275Z,16.90
2017-05-18T12:30:58.584Z,16.80
2017-05-18T12:33:26.868Z,16.70
2017-05-18T12:35:55.161Z,16.80
2017-05-18T12:38:23.479Z,16.70
2017-05-18T12:40:52.158Z,16.70
2017-05-18T12:43:20.450Z,16.70
2017-05-18T12:45:48.759Z,16.70
2017-05-18T12:48:17.121Z,16.60
2017-05-18T12:50:45.404Z,16.50
2017-05-18T12:53:14.463Z,16.50
2017-05-18T12:55:43.488Z,16.40
2017-05-18T12:58:11.773Z,16.40
2017-05-18T13:00:40.089Z,16.50
2017-05-18T13:03:08.376Z,16.40
2017-05-18T13:05:36.665Z,16.40
2017-05-18T13:08:04.989Z,16.50
2017-05-18T13:10:33.300Z,16.50
2017-05-18T13:13:01.842Z,16.60
2017-05-18T13:15:31.709Z,16.80
2017-05-18T13:18:00.333Z,17.00
2017-05-18T13:20:28.914Z,17.20
2017-05-18T13:22:57.690Z,17.50
2017-05-18T13:25:26.275Z,17.70
2017-05-18T13:27:54.831Z,17.60
2017-05-18T13:30:24.100Z,17.50
2017-05-18T13:32:53.740Z,17.50
2017-05-18T13:35:22.259Z,17.60
2017-05-18T13:37:50.694Z,17.80
2017-05-18T13:40:19.458Z,17.90
2017-05-18T13:42:47.736Z,18.10
2017-05-18T13:45:16.769Z,18.20
2017-05-18T13:47:45.097Z,18.40
2017-05-18T13:50:13.385Z,18.20
2017-05-18T13:52:41.664Z,18.50
2017-05-18T13:55:09.983Z,18.60
2017-05-18T13:57:38.274Z,18.70
2017-05-18T14:00:06.566Z,19.00
2017-05-18T14:02:34.880Z,18.80
2017-05-18T14:05:03.909Z,18.80
2017-05-18T14:07:32.193Z,18.70
2017-05-18T14:10:00.537Z,17.90
2017-05-18T14:12:29.560Z,18.00
2017-05-18T14:14:57.845Z,17.80
2017-05-18T14:17:26.191Z,17.90
2017-05-18T14:19:55.218Z,17.90
2017-05-18T14:22:23.496Z,18.40
2017-05-18T14:24:52.513Z,18.50
2017-05-18T14:27:20.797Z,18.90
2017-05-18T14:29:49.076Z,18.80
2017-05-18T14:32:17.417Z,18.90
2017-05-18T14:34:45.692Z,18.20
2017-05-18T14:37:13.980Z,18.20
2017-05-18T14:39:42.299Z,18.50
2017-05-18T14:42:10.652Z,18.70
2017-05-18T14:44:38.940Z,19.00
2017-05-18T14:47:07.257Z,19.10
2017-05-18T14:49:36.280Z,19.20
2017-05-18T14:52:04.555Z,19.40
2017-05-18T14:54:32.864Z,19.20
2017-05-18T14:57:01.237Z,19.20
2017-05-18T14:59:29.552Z,19.20
2017-05-18T15:01:58.589Z,18.50
2017-05-18T15:04:26.904Z,18.70
2017-05-18T15:06:55.185Z,18.50
2017-05-18T15:09:23.528Z,18.30
2017-05-18T15:11:52.008Z,18.00
2017-05-18T15:14:20.393Z,17.80
2017-05-18T15:16:48.681Z,17.70
2017-05-18T15:19:16.981Z,17.70
2017-05-18T15:21:45.261Z,17.90
2017-05-18T15:24:14.416Z,18.10
2017-05-18T15:26:42.695Z,17.80
2017-05-18T15:29:11.077Z,17.80
2017-05-18T15:31:39.392Z,17.90
2017-05-18T15:34:07.667Z,18.30
2017-05-18T15:36:36.861Z,18.50
2017-05-18T15:39:05.213Z,18.60
2017-05-18T15:41:33.693Z,18.70
2017-05-18T15:44:02.055Z,18.80
2017-05-18T15:46:30.342Z,18.80
2017-05-18T15:48:58.804Z,18.80
2017-05-18T15:51:27.115Z,18.70
2017-05-18T15:53:55.462Z,18.50
2017-05-18T15:56:23.772Z,18.60
2017-05-18T15:58:52.056Z,18.50
2017-05-18T16:01:21.084Z,18.40
2017-05-18T16:03:49.395Z,18.60
2017-05-18T16:06:17.712Z,18.70
2017-05-18T16:08:46.768Z,18.70
2017-05-18T16:11:15.149Z,18.70
2017-05-18T16:13:43.449Z,18.40
2017-05-18T16:16:11.725Z,18.40
2017-05-18T16:18:40.078Z,18.40
2017-05-18T16:21:08.365Z,18.20
2017-05-18T16:23:36.645Z,18.00
2017-05-18T16:26:04.969Z,18.10
2017-05-18T16:28:33.271Z,18.10
2017-05-18T16:31:01.553Z,18.00
2017-05-18T16:33:30.049Z,17.90
2017-05-18T16:35:58.327Z,17.90
2017-05-18T16:38:26.704Z,17.90
2017-05-18T16:40:55.076Z,17.90
2017-05-18T16:43:23.387Z,18.20
2017-05-18T16:45:51.664Z,18.40
2017-05-18T16:48:20.746Z,18.50
2017-05-18T16:50:49.027Z,18.40
2017-05-18T16:53:17.306Z,18.50
2017-05-18T16:55:45.871Z,18.70
2017-05-18T16:58:14.457Z,18.80
2017-05-18T17:00:43.248Z,19.00
2017-05-18T17:03:12.081Z,19.30
2017-05-18T17:05:40.659Z,19.30
2017-05-18T17:08:09.346Z,19.60
2017-05-18T17:10:38.543Z,19.90
2017-05-18T17:13:07.436Z,20.10
2017-05-18T17:15:36.130Z,20.10
2017-05-18T17:18:04.716Z,20.30
2017-05-18T17:20:33.299Z,20.20
2017-05-18T17:23:02.088Z,20.20
2017-05-18T17:25:30.460Z,20.30
2017-05-18T17:27:58.753Z,20.50
2017-05-18T17:30:27.144Z,20.50
2017-05-18T17:32:55.461Z,20.70
2017-05-18T17:35:25.315Z,20.50
2017-05-18T17:37:53.628Z,20.60
2017-05-18T17:40:22.692Z,20.70
2017-05-18T17:42:50.980Z,20.70
2017-05-18T17:45:19.292Z,20.30
2017-05-18T17:47:47.571Z,20.20
2017-05-18T17:50:15.856Z,20.30
2017-05-18T17:52:44.189Z,20.30
2017-05-18T17:55:13.496Z,20.30
2017-05-18T17:57:41.800Z,20.00
2017-05-18T18:00:10.875Z,20.20
2017-05-18T18:02:39.333Z,20.40
2017-05-18T18:05:07.653Z,20.20
2017-05-18T18:07:37.671Z,20.10
2017-05-18T18:10:06.007Z,20.00
2017-05-18T18:12:34.374Z,19.90
2017-05-18T18:15:02.760Z,19.90
2017-05-18T18:17:31.040Z,19.90
2017-05-18T18:19:59.396Z,19.70
2017-05-18T18:22:27.693Z,19.50
2017-05-18T18:24:55.979Z,19.50
2017-05-18T18:27:24.431Z,19.40
2017-05-18T18:29:52.805Z,19.50
2017-05-18T18:32:21.207Z,19.50
2017-05-18T18:34:49.621Z,19.50
2017-05-18T18:37:17.904Z,19.40
2017-05-18T18:39:46.188Z,19.30
2017-05-18T18:42:14.504Z,19.30
2017-05-18T18:44:42.815Z,19.20
2017-05-18T18:47:11.111Z,19.10
2017-05-18T18:49:39.432Z,19.00
2017-05-18T18:52:07.728Z,19.00
2017-05-18T18:54:36.748Z,18.90
2017-05-18T18:57:05.051Z,18.90
2017-05-18T18:59:33.347Z,18.80
2017-05-18T19:02:01.992Z,18.70
2017-05-18T19:04:30.273Z,18.60
2017-05-18T19:06:58.553Z,18.50
2017-05-18T19:09:26.885Z,18.40
2017-05-18T19:11:55.173Z,18.30
2017-05-18T19:14:23.456Z,18.20
2017-05-18T19:16:51.792Z,18.20
2017-05-18T19:19:20.074Z,18.10
2017-05-18T19:21:48.376Z,18.00
2017-05-18T19:24:16.696Z,18.00
2017-05-18T19:26:45.025Z,18.00
2017-05-18T19:29:14.058Z,17.90
2017-05-18T19:31:42.343Z,17.80
2017-05-18T19:34:10.752Z,17.70
2017-05-18T19:36:39.040Z,17.70
2017-05-18T19:39:07.329Z,17.60
2017-05-18T19:41:35.665Z,17.60
2017-05-18T19:44:04.695Z,17.50
2017-05-18T19:46:33.720Z,17.40
2017-05-18T19:49:02.052Z,17.40
2017-05-18T19:51:31.079Z,17.30
2017-05-18T19:53:59.673Z,17.20
2017-05-18T19:56:28.097Z,17.20
2017-05-18T19:58:56.380Z,17.10
2017-05-18T20:01:24.668Z,17.00
2017-05-18T20:03:52.999Z,17.00
2017-05-18T20:06:21.293Z,16.90
2017-05-18T20:08:49.589Z,16.90
2017-05-18T20:11:18.668Z,16.80
2017-05-18T20:13:46.960Z,16.80
2017-05-18T20:16:15.245Z,16.70
2017-05-18T20:18:43.818Z,16.70
2017-05-18T20:21:12.108Z,16.70
2017-05-18T20:23:40.473Z,16.60
2017-05-18T20:26:08.808Z,16.60
2017-05-18T20:28:37.093Z,16.60
2017-05-18T20:31:05.386Z,16.50
2017-05-18T20:33:33.708Z,16.50
2017-05-18T20:36:02.030Z,16.50
2017-05-18T20:38:30.316Z,16.50
2017-05-18T20:40:58.676Z,16.40
2017-05-18T20:43:26.959Z,16.40
2017-05-18T20:45:55.336Z,16.40
2017-05-18T20:48:23.723Z,16.40
2017-05-18T20:50:52.103Z,16.30
2017-05-18T20:53:20.420Z,16.30
2017-05-18T20:55:49.488Z,16.30
2017-05-18T20:58:17.776Z,16.30
2017-05-18T21:00:46.813Z,16.30
2017-05-18T21:03:15.525Z,16.30
2017-05-18T21:05:43.904Z,16.30
2017-05-18T21:08:12.188Z,16.20
2017-05-18T21:10:40.528Z,16.20
2017-05-18T21:13:08.840Z,16.20
2017-05-18T21:15:37.171Z,16.20
2017-05-18T21:18:05.502Z,16.20
2017-05-18T21:20:33.831Z,16.20
2017-05-18T21:23:02.208Z,16.20
2017-05-18T21:25:30.808Z,16.10
2017-05-18T21:27:59.169Z,16.20
2017-05-18T21:30:27.451Z,16.20
2017-05-18T21:32:55.925Z,16.10
2017-05-18T21:35:24.205Z,16.10
2017-05-18T21:37:52.483Z,16.10
2017-05-18T21:40:20.840Z,16.10
2017-05-18T21:42:49.124Z,16.10
2017-05-18T21:45:17.416Z,16.10
2017-05-18T21:47:45.740Z,16.10
2017-05-18T21:50:14.804Z,16.20
2017-05-18T21:52:43.105Z,16.20
2017-05-18T21:55:12.260Z,16.20
2017-05-18T21:57:40.638Z,16.20
2017-05-18T22:00:09.047Z,16.20
2017-05-18T22:02:37.602Z,16.20
2017-05-18T22:05:05.990Z,16.20
2017-05-18T22:07:34.271Z,16.20
2017-05-18T22:10:02.688Z,16.10
2017-05-18T22:12:31.717Z,16.10
2017-05-18T22:15:00.004Z,16.10
2017-05-18T22:17:28.428Z,16.00
2017-05-18T22:19:56.721Z,16.00
2017-05-18T22:22:25.752Z,16.00
2017-05-18T22:24:54.284Z,15.90
2017-05-18T22:27:22.642Z,15.90
2017-05-18T22:29:50.932Z,15.90
2017-05-18T22:32:19.399Z,15.90
2017-05-18T22:34:47.692Z,15.80
2017-05-18T22:37:16.059Z,15.80
2017-05-18T22:39:44.435Z,15.80
2017-05-18T22:42:12.719Z,15.80
2017-05-18T22:44:40.995Z,15.70
2017-05-18T22:47:09.369Z,15.70
2017-05-18T22:49:37.656Z,15.70
2017-05-18T22:52:05.944Z,15.70
2017-05-18T22:54:34.304Z,15.70
2017-05-18T22:57:02.595Z,15.60
2017-05-18T22:59:30.880Z,15.60
2017-05-18T23:01:59.237Z,15.70
2017-05-18T23:04:27.592Z,15.70
2017-05-18T23:06:55.877Z,15.70
2017-05-18T23:09:24.368Z,15.70
2017-05-18T23:11:52.648Z,15.70
2017-05-18T23:14:20.935Z,15.70
2017-05-18T23:16:49.608Z,15.60
2017-05-18T23:19:17.890Z,15.60
2017-05-18T23:21:46.269Z,15.60
2017-05-18T23:24:14.678Z,15.60
2017-05-18T23:26:43.030Z,15.60
2017-05-18T23:29:11.320Z,15.60
2017-05-18T23:31:39.651Z,15.60
2017-05-18T23:34:07.962Z,15.60
2017-05-18T23:36:36.336Z,15.60
2017-05-18T23:39:04.663Z,15.50
2017-05-18T23:41:33.680Z,15.50
2017-05-18T23:44:01.969Z,15.50
2017-05-18T23:46:30.470Z,15.50
2017-05-18T23:48:58.756Z,15.50
2017-05-18T23:51:27.032Z,15.50
2017-05-18T23:53:55.365Z,15.50
2017-05-18T23:56:23.691Z,15.50
2017-05-18T23:58:52.056Z,15.60
